Map

Track Data

SID SEASON NUMBER BASIN SUBBASIN NAME ISO_TIME NATURE LAT LON WMO_WIND WMO_PRES WMO_AGENCY TRACK_TYPE DIST2LAND LANDFALL IFLAG USA_AGENCY USA_ATCF_ID USA_LAT USA_LON USA_RECORD USA_STATUS USA_WIND USA_PRES USA_SSHS USA_R34_NE USA_R34_SE USA_R34_SW USA_R34_NW USA_R50_NE USA_R50_SE USA_R50_SW USA_R50_NW USA_R64_NE USA_R64_SE USA_R64_SW USA_R64_NW USA_POCI USA_ROCI USA_RMW USA_EYE TOKYO_LAT TOKYO_LON TOKYO_GRADE TOKYO_WIND TOKYO_PRES TOKYO_R50_DIR TOKYO_R50_LONG TOKYO_R50_SHORT TOKYO_R30_DIR TOKYO_R30_LONG TOKYO_R30_SHORT TOKYO_LAND CMA_LAT CMA_LON CMA_CAT CMA_WIND CMA_PRES HKO_LAT HKO_LON HKO_CAT HKO_WIND HKO_PRES NEWDELHI_LAT NEWDELHI_LON NEWDELHI_GRADE NEWDELHI_WIND NEWDELHI_PRES NEWDELHI_CI NEWDELHI_DP NEWDELHI_POCI REUNION_LAT REUNION_LON REUNION_TYPE REUNION_WIND REUNION_PRES REUNION_TNUM REUNION_CI REUNION_RMW REUNION_R34_NE REUNION_R34_SE REUNION_R34_SW REUNION_R34_NW REUNION_R50_NE REUNION_R50_SE REUNION_R50_SW REUNION_R50_NW REUNION_R64_NE REUNION_R64_SE REUNION_R64_SW REUNION_R64_NW BOM_LAT BOM_LON BOM_TYPE BOM_WIND BOM_PRES BOM_TNUM BOM_CI BOM_RMW BOM_R34_NE BOM_R34_SE BOM_R34_SW BOM_R34_NW BOM_R50_NE BOM_R50_SE BOM_R50_SW BOM_R50_NW BOM_R64_NE BOM_R64_SE BOM_R64_SW BOM_R64_NW BOM_ROCI BOM_POCI BOM_EYE BOM_POS_METHOD BOM_PRES_METHOD NADI_LAT NADI_LON NADI_CAT NADI_WIND NADI_PRES WELLINGTON_LAT WELLINGTON_LON WELLINGTON_WIND WELLINGTON_PRES DS824_LAT DS824_LON DS824_STAGE DS824_WIND DS824_PRES TD9636_LAT TD9636_LON TD9636_STAGE TD9636_WIND TD9636_PRES TD9635_LAT TD9635_LON TD9635_WIND TD9635_PRES TD9635_ROCI NEUMANN_LAT NEUMANN_LON NEUMANN_CLASS NEUMANN_WIND NEUMANN_PRES MLC_LAT MLC_LON MLC_CLASS MLC_WIND MLC_PRES USA_GUST BOM_GUST BOM_GUST_PER REUNION_GUST REUNION_GUST_PER USA_SEAHGT USA_SEARAD_NE USA_SEARAD_SE USA_SEARAD_SW USA_SEARAD_NW STORM_SPEED STORM_DIR
2022269N22145 2022 62 WP MM KULAP 2022-09-25 18:00:00 NR 22.4000 145.000 PROVISIONAL 1480 1427 O_____________ tcvitals WP192022 22.4000 145.000 29 1001 -1 1005 150 40 14 292
2022269N22145 2022 62 WP MM KULAP 2022-09-25 21:00:00 NR 22.6757 144.280 PROVISIONAL 1427 1375 P_____________ WP192022 22.6757 144.280 29 1001 -1 1005 150 40 14 295
2022269N22145 2022 62 WP MM KULAP 2022-09-26 00:00:00 NR 23.0000 143.600 PROVISIONAL 1375 1314 O_____________ tcvitals WP192022 23.0000 143.600 29 1001 -1 1005 150 40 14 302
2022269N22145 2022 62 WP MM KULAP 2022-09-26 03:00:00 NR 23.4123 142.997 PROVISIONAL 1314 1244 P_____________ WP192022 23.4123 142.997 34 999 0 1005 155 42 14 312
2022269N22145 2022 62 WP MM KULAP 2022-09-26 06:00:00 NR 23.9000 142.500 PROVISIONAL 1244 1175 O_____________ tcvitals WP192022 23.9000 142.500 39 998 0 115 100 70 65 1005 160 45 13 319
2022269N22145 2022 62 WP MM KULAP 2022-09-26 09:00:00 NR 24.3824 142.068 PROVISIONAL 1175 1102 P_____________ WP192022 24.3824 142.068 39 998 0 107 90 52 1005 160 45 13 330
2022269N22145 2022 62 WP MM KULAP 2022-09-26 12:00:00 NR 25.0000 141.800 PROVISIONAL 1102 1020 O_____________ tcvitals WP192022 25.0000 141.800 39 998 0 100 80 40 1005 160 45 15 349
2022269N22145 2022 62 WP MM KULAP 2022-09-26 15:00:00 NR 25.8924 141.739 PROVISIONAL 1009 916 P_____________ WP192022 25.8924 141.739 39 997 0 100 80 40 1005 160 45 18 1
2022269N22145 2022 62 WP MM KULAP 2022-09-26 18:00:00 NR 26.8000 141.800 PROVISIONAL 916 845 O_____________ tcvitals WP192022 26.8000 141.800 39 997 0 100 80 40 1006 160 45 16 4
2022269N22145 2022 62 WP MM KULAP 2022-09-26 21:00:00 NR 27.4824 141.872 PROVISIONAL 845 792 P_____________ WP192022 27.4824 141.872 42 996 0 100 80 40 1006 160 45 12 4
2022269N22145 2022 62 WP MM KULAP 2022-09-27 00:00:00 NR 28.0000 141.900 PROVISIONAL 792 754 O_____________ tcvitals WP192022 28.0000 141.900 45 995 0 100 80 40 40 1006 160 45 9 349
2022269N22145 2022 62 WP MM KULAP 2022-09-27 03:00:00 NR 28.3574 141.684 PROVISIONAL 744 709 P_____________ WP192022 28.3574 141.684 48 992 0 110 80 55 67 1006 170 32 8 339
2022269N22145 2022 62 WP MM KULAP 2022-09-27 06:00:00 NR 28.7000 141.600 PROVISIONAL 709 662 O_____________ tcvitals WP192022 28.7000 141.600 51 990 0 120 80 70 95 1007 180 20 9 16
2022269N22145 2022 62 WP MM KULAP 2022-09-27 09:00:00 NR 29.2123 141.957 PROVISIONAL 665 622 P_____________ WP192022 29.2123 141.957 51 989 0 123 105 90 107 1008 187 20 14 38
2022269N22145 2022 62 WP MM KULAP 2022-09-27 12:00:00 NR 29.8000 142.600 PROVISIONAL 622 593 O_____________ tcvitals WP192022 29.8000 142.600 51 989 0 126 130 110 120 1009 195 20 17 46
2022269N22145 2022 62 WP MM KULAP 2022-09-27 15:00:00 NR 30.4007 143.384 PROVISIONAL 598 584 P_____________ WP192022 30.4007 143.384 52 987 0 126 130 110 120 1008 222 20 18 49
2022269N22145 2022 62 WP MM KULAP 2022-09-27 18:00:00 NR 31.0000 144.200 PROVISIONAL 586 573 O_____________ tcvitals WP192022 31.0000 144.200 54 986 0 126 130 110 120 1008 250 20 16 45
2022269N22145 2022 62 WP MM KULAP 2022-09-27 21:00:00 NR 31.5552 144.750 PROVISIONAL 571 569 P_____________ WP192022 31.5552 144.750 57 984 0 100 140 125 115 1008 250 25 15 43
2022269N22145 2022 62 WP MM KULAP 2022-09-28 00:00:00 NR 32.1000 145.400 PROVISIONAL 576 575 O_____________ tcvitals WP192022 32.1000 145.400 60 983 0 75 150 140 110 1008 250 30 18 53
2022269N22145 2022 62 WP MM KULAP 2022-09-28 03:00:00 NR 32.6198 146.432 PROVISIONAL 611 611 P_____________ WP192022 32.6198 146.432 62 978 0 100 147 135 115 1005 255 30 22 60
2022269N22145 2022 62 WP MM KULAP 2022-09-28 06:00:00 NR 33.2000 147.700 PROVISIONAL 681 681 O_____________ tcvitals WP192022 33.2000 147.700 64 974 1 126 145 130 120 1003 260 30 26 60
2022269N22145 2022 62 WP MM KULAP 2022-09-28 09:00:00 NR 33.8902 149.079 PROVISIONAL 773 773 P_____________ WP192022 33.8902 149.079 64 973 1 128 147 132 120 1002 245 30 28 57
2022269N22145 2022 62 WP MM KULAP 2022-09-28 12:00:00 NR 34.7000 150.500 PROVISIONAL 877 877 O_____________ tcvitals WP192022 34.7000 150.500 64 973 1 130 150 135 120 1002 230 30 29 53
2022269N22145 2022 62 WP MM KULAP 2022-09-28 15:00:00 NR 35.6190 151.846 PROVISIONAL 956 956 P_____________ WP192022 35.6190 151.846 64 972 1 122 162 140 107 1001 215 25 28 48
2022269N22145 2022 62 WP MM KULAP 2022-09-28 18:00:00 NR 36.6000 153.100 PROVISIONAL 977 963 O_____________ tcvitals WP192022 36.6000 153.100 64 971 1 115 175 145 95 1000 200 20 27 45
2022269N22145 2022 62 WP MM KULAP 2022-09-28 21:00:00 NR 37.5614 154.231 PROVISIONAL 962 919 P_____________ WP192022 37.5614 154.231 64 970 1 137 175 157 100 1000 200 20 26 43
2022269N22145 2022 62 WP MM KULAP 2022-09-29 00:00:00 NR 38.5000 155.300 PROVISIONAL 913 O_____________ tcvitals WP192022 38.5000 155.300 64 970 1 160 175 170 105 1000 200 20 25 42

Digital Typhoon Data and Search

About IBTrACS Database

This database is a web-friendly format of International Best Track Archive for Climate Stewardship (IBTrACS), a global best track data archive curated by NOAA dating back to 1842.

Updated: 2022-11-16